Time;durP1;ratioP1;P1;durP2;ratioP2;P2;SDS_P1;SDS_P2;PMS_P1;PMS_P2;Temp;Humidity;BMP_temperature;BMP_pressure;BME280_temperature;BME280_humidity;BME280_pressure;Samples;Min_cycle;Max_cycle;Signal;HPM_P1;HPM_P2
2021/07/29 00:00:39;;;;;;;13.20;10.82;;;;;;;24.46;62.14;100044.70;1774279;79;21705;-72
2021/07/29 00:03:08;;;;;;;13.90;10.05;;;;;;;24.50;62.27;100041.07;1769351;79;21053;-71
2021/07/29 00:07:32;;;;;;;15.25;11.00;;;;;;;24.54;62.58;100041.72;1801595;77;22672;-67
2021/07/29 00:09:58;;;;;;;13.70;11.28;;;;;;;24.49;62.65;100040.22;1768226;79;21075;-67
2021/07/29 00:12:24;;;;;;;26.25;10.65;;;;;;;24.47;62.71;100039.09;1772039;78;21629;-67
2021/07/29 00:14:53;;;;;;;14.05;11.80;;;;;;;24.45;62.64;100038.50;1776306;78;21090;-67
2021/07/29 00:20:07;;;;;;;13.93;12.05;;;;;;;24.38;62.92;100036.42;1772980;78;21132;-66
2021/07/29 00:22:33;;;;;;;15.63;13.30;;;;;;;24.35;63.09;100046.80;1773472;78;21621;-66
2021/07/29 00:25:06;;;;;;;17.55;12.95;;;;;;;24.31;63.36;100046.42;1769282;79;20924;-67
2021/07/29 00:27:29;;;;;;;18.07;13.53;;;;;;;24.30;63.50;100049.61;1765453;78;21029;-66
2021/07/29 00:29:56;;;;;;;25.15;11.40;;;;;;;24.32;63.63;100049.92;1702809;80;22250;-66
2021/07/29 00:32:23;;;;;;;13.85;10.82;;;;;;;24.34;63.82;100051.33;1768268;78;21015;-67
2021/07/29 00:34:49;;;;;;;14.20;11.20;;;;;;;24.35;63.99;100060.24;1772131;80;21065;-67
2021/07/29 00:37:16;;;;;;;12.95;11.12;;;;;;;24.34;64.09;100062.62;1751110;78;21031;-66
2021/07/29 00:39:42;;;;;;;13.65;11.60;;;;;;;24.28;64.17;100059.77;1746773;80;21010;-66
2021/07/29 00:42:09;;;;;;;14.45;11.25;;;;;;;24.23;64.21;100062.30;1767165;79;21115;-67
2021/07/29 00:44:37;;;;;;;16.25;12.70;;;;;;;24.18;64.25;100063.48;1775539;78;21726;-66
2021/07/29 00:47:06;;;;;;;23.57;15.65;;;;;;;24.15;64.19;100055.86;1770849;80;21058;-67
2021/07/29 00:49:34;;;;;;;22.22;17.40;;;;;;;24.16;64.07;100053.48;1772084;78;21122;-67
2021/07/29 00:52:00;;;;;;;26.02;20.27;;;;;;;24.18;63.85;100047.36;1742626;81;21109;-67
2021/07/29 00:54:29;;;;;;;26.52;20.48;;;;;;;24.20;63.60;100047.14;1763740;78;21059;-67
2021/07/29 00:56:58;;;;;;;27.45;20.20;;;;;;;24.16;63.61;100045.92;1744309;81;21655;-70
2021/07/29 00:59:25;;;;;;;28.25;19.50;;;;;;;24.14;63.56;100047.52;1707123;83;21066;-67
2021/07/29 01:01:51;;;;;;;22.15;18.73;;;;;;;24.11;63.43;100042.57;1690232;83;21131;-67
2021/07/29 01:04:17;;;;;;;22.90;17.17;;;;;;;24.06;63.41;100037.84;1716500;81;21621;-67
2021/07/29 01:06:45;;;;;;;23.77;18.20;;;;;;;24.03;63.31;100038.81;1711538;82;21367;-67
2021/07/29 01:09:12;;;;;;;25.43;17.20;;;;;;;23.96;63.36;100032.68;1765560;79;21085;-67
2021/07/29 01:11:43;;;;;;;20.48;15.70;;;;;;;23.92;63.53;100034.45;1766269;79;21058;-67
2021/07/29 01:14:10;;;;;;;19.37;15.60;;;;;;;24.00;63.81;100037.91;1762740;79;21107;-67
2021/07/29 01:16:36;;;;;;;20.10;16.55;;;;;;;24.04;63.83;100039.94;1744157;80;21118;-67
2021/07/29 01:19:04;;;;;;;21.57;16.57;;;;;;;24.04;63.70;100037.75;1765186;79;21057;-67
2021/07/29 01:21:31;;;;;;;17.73;15.30;;;;;;;24.02;63.60;100039.84;1764099;80;21011;-67
2021/07/29 01:23:58;;;;;;;17.37;13.72;;;;;;;24.00;63.61;100040.59;1759754;80;21096;-67
2021/07/29 01:26:27;;;;;;;17.17;14.60;;;;;;;23.98;63.78;100042.68;1765272;79;21082;-67
2021/07/29 01:28:55;;;;;;;16.32;13.15;;;;;;;23.93;63.93;100046.02;1740045;80;21035;-67
2021/07/29 01:31:21;;;;;;;14.30;11.38;;;;;;;23.90;63.88;100059.36;1762291;79;21074;-67
2021/07/29 01:33:47;;;;;;;14.68;13.05;;;;;;;23.83;64.05;100057.25;1761322;80;21055;-67
2021/07/29 01:36:14;;;;;;;15.13;11.57;;;;;;;23.79;64.33;100068.11;1765406;79;21126;-68
2021/07/29 01:38:41;;;;;;;14.28;12.18;;;;;;;23.79;64.28;100069.95;1747334;80;21565;-67
2021/07/29 01:41:08;;;;;;;14.45;12.10;;;;;;;23.76;64.40;100073.91;1765206;80;21553;-67
2021/07/29 01:43:34;;;;;;;14.60;12.03;;;;;;;23.72;64.59;100072.69;1766308;79;21090;-67
2021/07/29 01:46:01;;;;;;;16.27;12.58;;;;;;;23.68;64.58;100072.83;1768120;79;21489;-67
2021/07/29 01:48:28;;;;;;;14.95;11.55;;;;;;;23.67;64.56;100072.52;1765498;79;21020;-67
2021/07/29 01:50:55;;;;;;;14.83;12.03;;;;;;;23.67;64.49;100073.36;1764784;80;22140;-67
2021/07/29 01:53:22;;;;;;;15.63;12.47;;;;;;;23.67;64.50;100071.17;1763214;79;21089;-67
2021/07/29 01:55:49;;;;;;;14.43;12.13;;;;;;;23.66;64.41;100073.57;1763860;79;21457;-67
2021/07/29 01:58:16;;;;;;;16.15;11.95;;;;;;;23.69;64.29;100071.80;1767365;80;21003;-67
2021/07/29 02:00:49;;;;;;;16.65;12.68;;;;;;;23.73;64.28;100065.75;1729099;80;21163;-67
2021/07/29 02:03:16;;;;;;;19.30;12.45;;;;;;;23.80;64.25;100067.58;1758771;79;21518;-67
2021/07/29 02:05:43;;;;;;;17.77;12.35;;;;;;;23.84;64.59;100068.81;1771439;79;21121;-68
2021/07/29 02:08:09;;;;;;;18.70;11.95;;;;;;;23.85;64.74;100072.62;1760590;80;21071;-68
2021/07/29 02:10:35;;;;;;;14.28;11.63;;;;;;;23.84;64.71;100087.61;1769036;79;21017;-67
2021/07/29 02:13:02;;;;;;;15.53;11.97;;;;;;;23.74;64.02;100074.13;1767295;79;21063;-67
2021/07/29 02:15:28;;;;;;;15.18;12.55;;;;;;;23.67;63.61;100072.02;1763222;79;21083;-67
2021/07/29 02:17:59;;;;;;;17.05;11.80;;;;;;;23.60;63.71;100066.37;1767991;79;21054;-68
2021/07/29 02:20:26;;;;;;;16.00;12.90;;;;;;;23.56;64.06;100073.51;1763403;79;21062;-68
2021/07/29 02:22:52;;;;;;;12.43;10.68;;;;;;;23.55;63.74;100074.56;1755435;80;21042;-67
2021/07/29 02:25:19;;;;;;;12.43;10.90;;;;;;;23.62;63.54;100076.37;1763227;80;21037;-67
2021/07/29 02:27:48;;;;;;;17.02;12.23;;;;;;;23.67;63.69;100074.70;1765395;80;21061;-67
2021/07/29 02:30:14;;;;;;;14.70;11.90;;;;;;;23.73;63.51;100071.66;1765664;80;21537;-67
2021/07/29 02:32:41;;;;;;;12.07;10.55;;;;;;;23.77;63.34;100068.86;1767529;79;21098;-67
2021/07/29 02:35:09;;;;;;;15.70;12.53;;;;;;;23.79;63.17;100064.08;1764194;79;21525;-67
2021/07/29 02:37:35;;;;;;;14.35;12.25;;;;;;;23.80;63.08;100061.68;1756093;79;21053;-67
2021/07/29 02:40:02;;;;;;;16.93;12.28;;;;;;;23.80;63.17;100061.68;1761918;80;21114;-67
2021/07/29 02:42:28;;;;;;;14.07;11.48;;;;;;;23.81;63.00;100053.12;1765499;80;21052;-67
2021/07/29 02:44:55;;;;;;;14.18;10.95;;;;;;;23.82;62.98;100050.25;1746242;80;21039;-68
2021/07/29 02:47:21;;;;;;;14.28;10.88;;;;;;;23.86;63.01;100039.36;1761690;80;21056;-68
2021/07/29 02:49:47;;;;;;;11.88;10.48;;;;;;;23.92;62.70;100037.14;1749557;80;21097;-68
2021/07/29 02:52:14;;;;;;;12.73;10.80;;;;;;;24.00;62.42;100028.50;1752018;80;21263;-68
2021/07/29 02:54:41;;;;;;;13.00;10.63;;;;;;;24.08;62.36;100028.22;1765933;79;21090;-66
2021/07/29 02:57:07;;;;;;;14.68;11.33;;;;;;;24.14;62.46;100026.51;1747214;80;21020;-66
2021/07/29 02:59:34;;;;;;;16.05;11.33;;;;;;;24.18;62.63;100028.55;1767735;79;21265;-67
2021/07/29 03:02:00;;;;;;;15.05;11.75;;;;;;;24.22;62.95;100028.39;1769994;80;20999;-67
2021/07/29 03:04:27;;;;;;;12.85;11.03;;;;;;;24.22;62.94;100024.36;1733591;80;22080;-57
2021/07/29 03:06:58;;;;;;;14.73;11.65;;;;;;;24.22;62.91;100028.39;1762176;79;21132;-69
2021/07/29 03:09:26;;;;;;;14.20;11.33;;;;;;;24.24;62.87;100018.26;1752925;80;21035;-67
2021/07/29 03:11:52;;;;;;;13.70;11.25;;;;;;;24.30;62.58;100018.70;1762408;79;21047;-68
2021/07/29 03:14:19;;;;;;;13.65;10.63;;;;;;;24.34;62.62;100017.72;1754275;79;21532;-67
2021/07/29 03:16:47;;;;;;;14.47;11.20;;;;;;;24.40;62.45;100013.34;1763852;79;20976;-67
2021/07/29 03:19:14;;;;;;;13.00;11.18;;;;;;;24.44;62.54;100007.80;1731714;80;21513;-67
2021/07/29 03:21:40;;;;;;;13.98;11.28;;;;;;;24.46;62.49;100007.05;1754140;79;21016;-68
2021/07/29 03:24:07;;;;;;;12.55;9.93;;;;;;;24.48;62.44;100009.83;1757039;79;21107;-68
2021/07/29 03:26:34;;;;;;;12.63;11.20;;;;;;;24.49;62.26;100005.27;1737815;80;21023;-68
2021/07/29 03:29:00;;;;;;;11.85;10.35;;;;;;;24.48;62.42;100006.33;1703778;82;21968;-68
2021/07/29 03:31:27;;;;;;;12.65;9.70;;;;;;;24.50;62.75;100005.58;1758492;79;21046;-68
2021/07/29 03:33:53;;;;;;;13.18;10.43;;;;;;;24.54;62.96;100005.41;1752817;80;21046;-67
2021/07/29 03:36:20;;;;;;;14.80;12.00;;;;;;;24.59;63.37;100010.16;1754203;79;21096;-67
2021/07/29 03:38:47;;;;;;;13.25;10.75;;;;;;;24.64;63.40;100004.92;1746208;80;21539;-67
2021/07/29 03:41:13;;;;;;;14.28;11.30;;;;;;;24.68;63.46;100008.83;1761921;79;21126;-67
2021/07/29 03:43:40;;;;;;;12.40;10.85;;;;;;;24.72;63.64;100010.54;1757193;80;21030;-67
2021/07/29 03:46:07;;;;;;;13.68;11.00;;;;;;;24.75;63.69;100014.13;1719756;82;21043;-66
2021/07/29 03:48:34;;;;;;;13.53;11.80;;;;;;;24.79;63.71;100018.00;1758520;80;21100;-68
2021/07/29 03:51:00;;;;;;;13.28;10.58;;;;;;;24.82;63.62;100007.60;1759460;80;21091;-68
2021/07/29 03:53:27;;;;;;;13.75;10.70;;;;;;;24.90;63.60;100000.26;1756805;79;21535;-67
2021/07/29 03:55:55;;;;;;;12.55;10.32;;;;;;;24.96;63.95;100000.70;1748879;79;21097;-67
2021/07/29 03:58:21;;;;;;;12.53;10.48;;;;;;;25.01;64.03;100001.66;1758923;79;21008;-67
2021/07/29 04:00:48;;;;;;;15.63;11.20;;;;;;;25.04;63.94;99995.83;1756697;79;21053;-66
2021/07/29 04:03:15;;;;;;;13.62;10.98;;;;;;;25.10;63.93;100000.00;1741676;80;21055;-67
2021/07/29 04:05:41;;;;;;;13.58;10.82;;;;;;;25.14;63.57;100002.02;1756426;79;21229;-67
2021/07/29 04:08:09;;;;;;;12.80;10.60;;;;;;;25.17;63.32;99999.41;1765534;80;21056;-67
2021/07/29 04:10:36;;;;;;;12.05;10.63;;;;;;;25.21;63.31;99989.81;1742876;80;21049;-67
2021/07/29 04:13:03;;;;;;;12.28;10.30;;;;;;;25.31;63.22;99996.02;1768082;78;21126;-66
2021/07/29 04:15:30;;;;;;;13.43;10.45;;;;;;;25.39;63.38;99995.70;1771717;79;21002;-65
2021/07/29 04:17:56;;;;;;;12.40;10.72;;;;;;;25.42;63.34;99994.40;1768355;78;21079;-65
2021/07/29 04:20:22;;;;;;;13.28;11.88;;;;;;;25.40;63.15;100005.40;1764540;80;21633;-65
2021/07/29 04:22:48;;;;;;;13.22;11.28;;;;;;;25.37;63.11;100003.19;1773261;78;21035;-66
2021/07/29 04:25:15;;;;;;;14.70;10.68;;;;;;;25.34;63.28;100007.69;1766633;78;21160;-65
2021/07/29 04:27:41;;;;;;;17.15;10.20;;;;;;;25.33;63.06;100008.19;1770725;80;21129;-66
2021/07/29 04:30:08;;;;;;;11.85;9.95;;;;;;;25.29;62.83;100001.63;1773412;78;21105;-66
2021/07/29 04:32:36;;;;;;;13.83;10.53;;;;;;;25.30;62.94;100000.59;1766511;80;21113;-67
2021/07/29 04:35:06;;;;;;;13.43;10.78;;;;;;;25.36;63.05;99996.97;1743227;80;21057;-65
2021/07/29 04:37:33;;;;;;;15.70;11.05;;;;;;;25.43;63.00;100004.95;1697366;83;21050;-64
2021/07/29 04:39:59;;;;;;;17.87;11.73;;;;;;;25.50;62.83;99996.77;1736555;82;22201;-66
2021/07/29 04:42:26;;;;;;;12.50;10.78;;;;;;;25.52;62.64;99996.00;1704675;82;21141;-67
2021/07/29 04:44:53;;;;;;;12.15;10.20;;;;;;;25.55;62.94;99994.20;1706472;82;21093;-62
2021/07/29 04:47:19;;;;;;;12.37;10.15;;;;;;;25.58;62.69;100003.17;1715615;81;21012;-65
2021/07/29 04:49:46;;;;;;;18.82;10.58;;;;;;;25.57;62.81;100005.05;1715620;81;21118;-66
2021/07/29 04:52:12;;;;;;;11.73;9.95;;;;;;;25.58;62.46;100004.52;1727676;81;21110;-66
2021/07/29 04:54:38;;;;;;;13.28;9.95;;;;;;;25.57;62.26;99990.73;1740532;82;21468;-67
2021/07/29 04:57:05;;;;;;;13.20;10.32;;;;;;;25.59;62.51;99991.35;1715544;82;21594;-65
2021/07/29 04:59:32;;;;;;;12.63;10.40;;;;;;;25.63;62.63;99992.52;1726190;81;21009;-65
2021/07/29 05:01:58;;;;;;;14.98;10.85;;;;;;;25.66;62.41;99994.75;1720942;81;21063;-64
2021/07/29 05:04:25;;;;;;;13.70;10.78;;;;;;;25.70;62.18;99993.76;1725658;81;21549;-67
2021/07/29 05:06:51;;;;;;;11.68;10.03;;;;;;;25.73;62.03;99989.26;1708840;83;21028;-67
2021/07/29 05:09:19;;;;;;;14.05;11.03;;;;;;;25.77;61.97;99991.27;1663000;84;21101;-62
2021/07/29 05:11:45;;;;;;;13.98;10.03;;;;;;;25.86;61.75;99989.58;1663124;84;21090;-62
2021/07/29 05:14:12;;;;;;;11.48;10.00;;;;;;;25.99;61.34;99982.64;1652054;83;21109;-61
2021/07/29 05:16:38;;;;;;;13.43;10.15;;;;;;;26.12;61.19;99979.67;1655162;84;21114;-66
2021/07/29 05:19:06;;;;;;;13.88;10.10;;;;;;;26.25;61.03;99979.16;1682058;83;21678;-70
2021/07/29 05:21:34;;;;;;;11.95;9.63;;;;;;;26.34;60.59;99979.08;1697723;82;21053;-65
2021/07/29 05:24:05;;;;;;;11.00;9.68;;;;;;;26.40;60.22;99980.83;1743168;80;21039;-66
2021/07/29 05:26:32;;;;;;;12.85;9.40;;;;;;;26.46;60.19;99975.01;1740384;82;21048;-67
2021/07/29 05:28:58;;;;;;;12.30;10.65;;;;;;;26.53;60.32;99980.27;1736657;80;21060;-67
2021/07/29 05:31:25;;;;;;;14.10;10.03;;;;;;;26.54;59.45;99974.64;1742107;80;21123;-68
2021/07/29 05:33:52;;;;;;;11.40;10.20;;;;;;;26.53;60.22;99969.48;1748452;80;21061;-69
2021/07/29 05:36:20;;;;;;;13.95;10.08;;;;;;;26.53;60.67;99968.13;1703332;82;21616;-68
2021/07/29 05:38:47;;;;;;;10.13;9.05;;;;;;;26.58;60.75;99971.77;1728569;80;21105;-69
2021/07/29 05:41:13;;;;;;;12.47;9.83;;;;;;;26.66;60.43;99966.55;1701067;82;21141;-69
2021/07/29 05:43:40;;;;;;;14.80;10.00;;;;;;;26.74;60.46;99959.96;1707890;83;22103;-69
2021/07/29 05:46:09;;;;;;;10.35;8.98;;;;;;;26.82;60.37;99960.94;1682922;83;21081;-69
2021/07/29 05:48:37;;;;;;;12.75;9.95;;;;;;;26.91;59.88;99957.31;1697332;83;21130;-70
2021/07/29 05:51:04;;;;;;;14.50;9.85;;;;;;;26.98;60.21;99954.77;1677672;85;21062;-68
2021/07/29 05:53:30;;;;;;;11.95;9.98;;;;;;;27.05;60.60;99953.27;1692782;82;21063;-68
2021/07/29 05:55:57;;;;;;;15.32;9.93;;;;;;;27.11;60.84;99955.52;1741192;80;21094;-67
2021/07/29 05:58:23;;;;;;;13.60;9.35;;;;;;;27.18;60.79;99954.29;1743254;80;20995;-67
2021/07/29 06:00:49;;;;;;;10.48;8.33;;;;;;;27.30;60.60;99952.09;1747575;80;21553;-66
2021/07/29 06:03:16;;;;;;;11.57;8.80;;;;;;;27.39;60.08;99950.10;1738996;80;21037;-67
2021/07/29 06:05:43;;;;;;;12.37;9.85;;;;;;;27.48;60.02;99951.86;1741794;80;21098;-66
2021/07/29 06:08:10;;;;;;;11.08;8.28;;;;;;;27.54;59.66;99954.13;1739992;80;21860;-66
2021/07/29 06:10:36;;;;;;;11.25;9.15;;;;;;;27.60;59.60;99953.13;1742033;80;21059;-68
2021/07/29 06:13:03;;;;;;;11.65;9.93;;;;;;;27.68;59.54;99954.61;1710256;80;21019;-67
2021/07/29 06:15:29;;;;;;;10.20;8.75;;;;;;;27.71;59.39;99955.48;1705712;82;21743;-64
2021/07/29 06:17:58;;;;;;;11.75;9.18;;;;;;;27.71;59.38;99957.64;1729372;80;21137;-66
2021/07/29 06:20:24;;;;;;;9.35;7.17;;;;;;;27.70;59.54;99959.23;1735410;80;21123;-66
2021/07/29 06:22:50;;;;;;;10.85;9.40;;;;;;;27.73;59.44;99962.80;1731911;80;21055;-67
2021/07/29 06:25:20;;;;;;;9.93;8.48;;;;;;;27.79;59.39;99954.52;1742686;80;21128;-68
2021/07/29 06:27:48;;;;;;;12.55;8.63;;;;;;;27.86;58.67;99954.35;1737007;80;21034;-68
2021/07/29 06:30:18;;;;;;;8.90;7.25;;;;;;;27.94;58.29;99946.36;1741608;80;21576;-68
2021/07/29 06:32:45;;;;;;;9.20;7.35;;;;;;;28.02;57.59;99947.84;1740950;80;21851;-68
2021/07/29 06:35:11;;;;;;;10.32;8.35;;;;;;;28.04;56.86;99942.48;1737817;80;21063;-68
2021/07/29 06:37:38;;;;;;;10.08;8.35;;;;;;;28.05;56.91;99944.64;1744748;80;21177;-68
2021/07/29 06:40:09;;;;;;;11.73;9.43;;;;;;;28.07;56.52;99942.50;1738187;80;21093;-68
2021/07/29 06:42:37;;;;;;;10.53;8.28;;;;;;;28.10;55.84;99943.36;1736461;80;21074;-65
2021/07/29 06:45:05;;;;;;;8.58;6.90;;;;;;;28.14;55.48;99942.61;1741049;80;21688;-68
2021/07/29 06:47:32;;;;;;;8.13;6.45;;;;;;;28.21;54.44;99939.73;1712005;82;21074;-67
2021/07/29 06:49:59;;;;;;;8.48;6.65;;;;;;;28.26;54.57;99938.44;1742259;80;21041;-68
2021/07/29 06:52:26;;;;;;;9.00;7.15;;;;;;;28.30;54.14;99937.41;1737400;80;21058;-66
2021/07/29 06:54:52;;;;;;;7.37;5.60;;;;;;;28.37;53.20;99933.96;1732975;80;21149;-66
2021/07/29 06:57:18;;;;;;;7.67;6.00;;;;;;;28.42;52.97;99927.80;1740155;80;21135;-67
2021/07/29 06:59:45;;;;;;;8.33;5.67;;;;;;;28.49;52.79;99933.29;1737408;82;21030;-66
2021/07/29 07:02:12;;;;;;;9.98;5.47;;;;;;;28.57;52.48;99930.72;1744999;80;21047;-69
2021/07/29 07:04:38;;;;;;;9.83;5.80;;;;;;;28.66;52.66;99925.13;1736037;81;21046;-65
2021/07/29 07:07:05;;;;;;;9.25;6.10;;;;;;;28.74;52.39;99919.80;1730783;80;21086;-67
2021/07/29 07:09:32;;;;;;;8.98;6.10;;;;;;;28.82;52.66;99923.41;1738087;80;21070;-69
2021/07/29 07:11:59;;;;;;;7.83;5.55;;;;;;;28.89;52.34;99921.85;1759459;79;21598;-65
2021/07/29 07:14:25;;;;;;;8.18;5.15;;;;;;;28.94;51.38;99927.31;1763027;79;21133;-66
2021/07/29 07:16:52;;;;;;;7.85;5.42;;;;;;;28.99;51.49;99925.20;1761812;80;21018;-66
2021/07/29 07:19:18;;;;;;;12.13;7.62;;;;;;;29.04;51.36;99924.70;1768117;79;21077;-65
2021/07/29 07:21:45;;;;;;;10.82;8.35;;;;;;;29.09;50.94;99926.66;1740565;80;21031;-65
2021/07/29 07:24:11;;;;;;;7.97;6.28;;;;;;;29.14;50.54;99925.89;1760709;79;21562;-64
2021/07/29 07:26:37;;;;;;;7.25;5.55;;;;;;;29.16;50.18;99921.02;1760985;80;21170;-65
2021/07/29 07:29:06;;;;;;;8.08;5.42;;;;;;;29.18;50.36;99921.61;1763209;79;21573;-64
2021/07/29 07:31:33;;;;;;;6.97;5.35;;;;;;;29.21;50.57;99921.09;1762362;80;21109;-69
2021/07/29 07:34:00;;;;;;;8.23;6.05;;;;;;;29.26;50.58;99917.08;1760439;80;21060;-70
2021/07/29 07:36:27;;;;;;;7.72;5.40;;;;;;;29.32;50.70;99919.28;1761623;79;21060;-70
2021/07/29 07:38:54;;;;;;;6.92;5.15;;;;;;;29.37;51.28;99916.61;1722640;82;21601;-71
2021/07/29 07:41:21;;;;;;;11.33;7.15;;;;;;;29.43;50.84;99923.16;1761676;79;21121;-70
2021/07/29 07:43:49;;;;;;;11.45;7.33;;;;;;;29.50;50.70;99914.01;1730903;81;21063;-70
2021/07/29 07:46:16;;;;;;;10.43;7.12;;;;;;;29.56;50.61;99904.84;1765395;79;21128;-65
2021/07/29 07:48:46;;;;;;;10.38;7.53;;;;;;;29.63;50.24;99907.59;1762828;79;21082;-71
2021/07/29 07:51:12;;;;;;;8.65;6.85;;;;;;;29.70;50.46;99901.94;1767117;80;21101;-69
2021/07/29 07:53:38;;;;;;;11.33;6.95;;;;;;;29.77;50.89;99898.52;1762794;79;21622;-70
2021/07/29 07:56:05;;;;;;;8.93;7.08;;;;;;;29.80;50.87;99904.74;1736460;80;21046;-69
2021/07/29 07:58:32;;;;;;;21.20;6.95;;;;;;;29.86;50.71;99907.48;1761932;80;21126;-70
2021/07/29 08:01:04;;;;;;;10.75;7.42;;;;;;;29.95;50.15;99908.63;1763954;79;21070;-68
2021/07/29 08:03:30;;;;;;;8.13;6.30;;;;;;;30.03;50.34;99895.93;1762080;79;21121;-70
2021/07/29 08:06:02;;;;;;;8.95;6.08;;;;;;;30.14;50.29;99898.97;1765256;79;21626;-69
2021/07/29 08:08:29;;;;;;;7.05;5.45;;;;;;;30.27;50.26;99900.91;1760836;80;21479;-71
2021/07/29 08:10:57;;;;;;;10.35;7.65;;;;;;;30.36;50.39;99890.67;1755578;79;21501;-69
2021/07/29 08:13:23;;;;;;;10.88;7.62;;;;;;;30.42;50.68;99887.42;1756853;80;21100;-68
2021/07/29 08:15:50;;;;;;;8.90;5.80;;;;;;;30.45;50.43;99886.89;1755539;79;21023;-68
2021/07/29 08:18:18;;;;;;;10.50;6.92;;;;;;;30.48;50.60;99886.37;1758265;80;21494;-69
2021/07/29 08:20:46;;;;;;;8.25;6.37;;;;;;;30.54;50.55;99887.98;1758554;79;21114;-72
2021/07/29 08:23:13;;;;;;;12.68;8.70;;;;;;;30.63;50.19;99886.11;1760641;79;22082;-71
2021/07/29 08:25:39;;;;;;;10.60;8.08;;;;;;;30.68;48.94;99887.48;1737438;80;21016;-70
2021/07/29 08:28:05;;;;;;;13.18;8.28;;;;;;;30.68;48.67;99887.48;1761567;80;21609;-71
2021/07/29 08:30:32;;;;;;;13.75;8.70;;;;;;;30.66;48.38;99882.86;1752855;79;21549;-71
2021/07/29 08:33:11;;;;;;;11.53;9.25;;;;;;;30.66;48.26;99891.81;1755115;79;21724;-71
2021/07/29 08:35:38;;;;;;;13.72;9.45;;;;;;;30.66;48.50;99887.75;1757673;79;21117;-73
2021/07/29 08:38:05;;;;;;;12.10;9.03;;;;;;;30.68;48.61;99889.67;1763574;79;21039;-75
2021/07/29 08:40:33;;;;;;;10.88;8.73;;;;;;;30.67;48.87;99889.39;1759624;80;21008;-74
2021/07/29 08:43:04;;;;;;;11.10;8.58;;;;;;;30.72;48.56;99891.30;1734313;80;21340;-77
2021/07/29 08:45:31;;;;;;;8.90;6.40;;;;;;;30.78;48.80;99886.13;1715192;79;22227;-71
2021/07/29 08:47:58;;;;;;;11.48;8.03;;;;;;;30.85;48.97;99882.64;1750722;79;21483;-73
2021/07/29 08:51:56;;;;;;;9.23;7.72;;;;;;;31.11;49.13;99876.69;1780044;78;22170;-69
2021/07/29 08:54:22;;;;;;;11.25;8.93;;;;;;;31.19;48.73;99875.34;1746670;80;21505;-70
2021/07/29 08:56:49;;;;;;;12.15;9.58;;;;;;;31.35;48.18;99868.53;1689314;83;21153;-71
2021/07/29 08:59:15;;;;;;;11.73;9.13;;;;;;;31.46;47.47;99874.23;1711831;81;21034;-73
2021/07/29 09:01:44;;;;;;;10.28;8.90;;;;;;;31.59;47.16;99869.61;1709423;81;21116;-72
2021/07/29 09:04:14;;;;;;;12.55;7.67;;;;;;;31.73;46.46;99877.20;1701310;82;21049;-72
2021/07/29 09:07:02;;;;;;;9.53;8.18;;;;;;;31.78;46.93;99873.91;1685121;83;21647;-72
2021/07/29 09:09:46;;;;;;;11.18;7.35;;;;;;;31.85;46.84;99870.90;1712866;81;21143;-72
2021/07/29 09:12:20;;;;;;;11.85;9.68;;;;;;;31.97;47.20;99878.75;1720285;82;20990;-70
2021/07/29 09:14:48;;;;;;;12.70;8.50;;;;;;;32.07;45.58;99867.05;1716837;82;21687;-72
2021/07/29 09:17:16;;;;;;;10.15;8.70;;;;;;;32.09;45.85;99861.58;1718853;83;21054;-72
2021/07/29 09:19:50;;;;;;;11.35;8.13;;;;;;;32.11;45.63;99853.14;1715918;82;21022;-70
2021/07/29 09:22:22;;;;;;;12.13;8.18;;;;;;;32.16;45.59;99849.03;1686343;83;21082;-72
2021/07/29 09:25:10;;;;;;;9.50;7.90;;;;;;;32.20;44.02;99855.00;1708426;82;21049;-71
2021/07/29 09:27:43;;;;;;;10.58;7.15;;;;;;;32.18;43.72;99848.23;1682199;83;21097;-72
2021/07/29 09:30:22;;;;;;;12.60;7.28;;;;;;;32.13;44.93;99849.06;1714431;82;21064;-72
2021/07/29 09:33:00;;;;;;;11.40;8.48;;;;;;;32.12;44.42;99845.25;1715208;81;21049;-71
2021/07/29 09:35:46;;;;;;;12.80;7.72;;;;;;;32.11;44.52;99843.09;1719517;82;21066;-74
2021/07/29 09:38:26;;;;;;;13.90;7.78;;;;;;;32.07;44.17;99843.36;1712111;82;21055;-73
2021/07/29 09:40:59;;;;;;;13.40;9.18;;;;;;;32.06;44.12;99843.61;1705178;83;21628;-71
2021/07/29 09:43:32;;;;;;;11.08;8.40;;;;;;;32.04;44.38;99835.72;1687885;84;21083;-71
2021/07/29 09:46:02;;;;;;;14.58;8.13;;;;;;;32.05;44.17;99833.28;1692360;83;21051;-73
2021/07/29 09:48:31;;;;;;;11.08;8.18;;;;;;;32.07;44.99;99831.11;1697878;84;21135;-70
2021/07/29 09:50:59;;;;;;;11.28;7.80;;;;;;;32.10;44.46;99832.48;1683541;82;21103;-74
2021/07/29 09:53:33;;;;;;;9.40;7.40;;;;;;;32.13;43.77;99830.56;1678567;84;21055;-73
2021/07/29 09:56:00;;;;;;;13.53;6.97;;;;;;;32.14;43.91;99824.01;1665660;84;21059;-72
2021/07/29 09:58:27;;;;;;;10.48;7.53;;;;;;;32.16;42.96;99825.37;1684617;83;21090;-72
2021/07/29 10:00:53;;;;;;;12.75;7.90;;;;;;;32.19;43.10;99828.06;1678546;83;21530;-73
2021/07/29 10:03:22;;;;;;;11.85;8.55;;;;;;;32.22;43.81;99823.42;1679974;83;21614;-74
2021/07/29 10:06:00;;;;;;;14.47;8.68;;;;;;;32.29;43.97;99823.92;1675859;84;21110;-73
2021/07/29 10:08:31;;;;;;;12.80;7.60;;;;;;;32.33;42.99;99831.80;1652710;84;21561;-73
2021/07/29 10:11:00;;;;;;;11.18;7.42;;;;;;;32.34;42.54;99833.97;1672633;84;21573;-70
2021/07/29 10:13:37;;;;;;;10.90;7.12;;;;;;;32.31;41.62;99831.28;1674797;84;21535;-72
2021/07/29 10:16:07;;;;;;;12.10;7.35;;;;;;;32.29;41.08;99830.72;1679676;83;21091;-76
2021/07/29 10:18:57;;;;;;;14.90;8.08;;;;;;;32.30;41.87;99837.00;1654574;84;21075;-70
2021/07/29 10:21:31;;;;;;;13.32;8.05;;;;;;;32.30;42.47;99824.20;1680009;83;21024;-71
2021/07/29 10:24:02;;;;;;;9.55;7.22;;;;;;;32.30;42.23;99821.47;1717646;81;21046;-75
2021/07/29 10:26:35;;;;;;;8.78;6.17;;;;;;;32.31;42.56;99825.00;1684226;84;21836;-76
2021/07/29 10:29:24;;;;;;;10.00;6.20;;;;;;;32.33;42.34;99819.55;1668705;84;21070;-72
2021/07/29 10:31:59;;;;;;;9.88;6.67;;;;;;;32.36;42.72;99801.30;1678808;84;21078;-76
2021/07/29 10:34:30;;;;;;;10.08;6.33;;;;;;;32.39;42.28;99799.91;1644563;85;21149;-72
2021/07/29 10:37:05;;;;;;;8.00;5.65;;;;;;;32.45;41.86;99804.23;1718755;82;20992;-74
2021/07/29 10:41:45;;;;;;;10.20;6.33;;;;;;;32.61;41.59;99789.98;1761611;78;22010;-72
2021/07/29 10:44:36;;;;;;;13.48;6.17;;;;;;;32.57;40.07;99802.52;1735994;81;21603;-73
2021/07/29 10:47:05;;;;;;;9.80;5.03;;;;;;;32.58;39.98;99797.31;1737654;81;21119;-72
2021/07/29 10:49:52;;;;;;;10.38;4.92;;;;;;;32.59;39.27;99789.42;1739910;81;21134;-73
2021/07/29 10:52:18;;;;;;;7.95;4.33;;;;;;;32.59;38.17;99794.87;1736258;81;21110;-73
2021/07/29 10:54:45;;;;;;;8.55;4.47;;;;;;;32.59;37.57;99790.23;1736832;81;21132;-75
2021/07/29 10:57:13;;;;;;;12.10;4.80;;;;;;;32.61;37.47;99787.78;1736907;81;21062;-73
2021/07/29 10:59:40;;;;;;;10.45;4.17;;;;;;;32.62;37.64;99784.80;1703170;81;21133;-75
2021/07/29 11:02:19;;;;;;;8.43;4.45;;;;;;;32.67;36.30;99788.05;1710050;81;21059;-72
2021/07/29 11:04:57;;;;;;;8.30;4.05;;;;;;;32.69;37.00;99785.84;1736741;81;21058;-69
2021/07/29 11:07:23;;;;;;;14.30;4.50;;;;;;;32.74;37.33;99790.69;1708707;81;21596;-71
2021/07/29 11:10:10;;;;;;;13.05;5.40;;;;;;;32.77;37.23;99784.67;1736906;81;21058;-72
2021/07/29 11:12:39;;;;;;;13.93;5.08;;;;;;;32.74;37.25;99778.98;1728422;81;21123;-75
2021/07/29 11:15:06;;;;;;;7.75;4.60;;;;;;;32.75;37.83;99783.32;1735722;80;21050;-77
2021/07/29 11:17:33;;;;;;;14.15;6.30;;;;;;;32.81;37.45;99782.75;1719783;81;21038;-75
2021/07/29 11:19:59;;;;;;;10.58;4.92;;;;;;;32.85;37.14;99775.09;1737636;81;21121;-75
2021/07/29 11:22:26;;;;;;;8.80;4.62;;;;;;;32.92;37.36;99777.48;1718162;81;21931;-75
2021/07/29 11:24:54;;;;;;;9.70;4.70;;;;;;;32.98;37.20;99772.78;1739628;80;21109;-74
2021/07/29 11:27:31;;;;;;;14.10;5.15;;;;;;;33.05;37.42;99771.89;1737166;81;21545;-74
2021/07/29 11:29:59;;;;;;;8.65;4.75;;;;;;;33.11;37.74;99766.10;1737101;81;21055;-75
2021/07/29 11:32:37;;;;;;;7.95;4.65;;;;;;;33.18;37.18;99767.16;1738828;81;21054;-74